Terminal Aerodrome Forecast
Issued by NWS Greer, SC

Home | Current Version | Previous Version | Text Only | Print | Product List | Glossary On
Versions: 1 2 3 4 5 6 7 8 9 10 11 12 13 14 15 16 17 18 19 20 21 22 23 24 25 26 27
653
FTUS42 KGSP 080203 AAB
TAFGSP
TAF AMD
KGSP 080203Z 0802/0824 21005KT P6SM OVC007
      TEMPO 0802/0804 SCT007 OVC012
     FM080600 VRB02KT 5SM BR OVC015
     FM081100 27005KT P6SM OVC025
     FM081400 34011KT P6SM SCT035 BKN090
     FM081900 33009KT P6SM SCT150 BKN250=

USA.gov is the U.S. government's official web portal to all federal, state and local government web resources and services.